createdAt,value
2024-05-09T00:01:45.807Z,10.50
2024-05-09T00:04:37.548Z,10.30
2024-05-09T00:07:28.276Z,10.10
2024-05-09T00:10:25.191Z,9.80
2024-05-09T00:13:19.873Z,9.90
2024-05-09T00:16:09.303Z,9.90
2024-05-09T00:18:57.194Z,10.00
2024-05-09T00:21:45.687Z,10.10
2024-05-09T00:24:33.628Z,10.10
2024-05-09T00:27:23.943Z,10.10
2024-05-09T00:30:17.773Z,10.20
2024-05-09T00:33:13.567Z,10.40
2024-05-09T00:36:01.982Z,10.20
2024-05-09T00:38:50.026Z,10.20
2024-05-09T00:41:40.741Z,9.90
2024-05-09T00:44:29.138Z,9.80
2024-05-09T00:47:18.405Z,9.90
2024-05-09T00:50:12.617Z,9.80
2024-05-09T00:53:04.076Z,9.90
2024-05-09T00:55:55.085Z,9.80
2024-05-09T00:58:43.970Z,9.70
2024-05-09T01:01:32.014Z,9.70
2024-05-09T01:04:20.106Z,9.70
2024-05-09T01:07:08.808Z,9.70
2024-05-09T01:09:57.113Z,9.70
2024-05-09T01:12:47.785Z,9.60
2024-05-09T01:15:36.136Z,9.50
2024-05-09T01:18:24.640Z,9.60
2024-05-09T01:21:12.952Z,9.50
2024-05-09T01:24:01.071Z,9.80
2024-05-09T01:26:49.411Z,9.70
2024-05-09T01:29:37.382Z,9.40
2024-05-09T01:32:25.610Z,9.40
2024-05-09T01:35:13.780Z,9.40
2024-05-09T01:38:04.121Z,9.40
2024-05-09T01:40:54.668Z,9.20
2024-05-09T01:43:43.035Z,9.20
2024-05-09T01:46:31.160Z,9.20
2024-05-09T01:49:19.191Z,9.10
2024-05-09T01:52:07.724Z,9.20
2024-05-09T01:54:59.130Z,9.20
2024-05-09T01:57:50.735Z,9.30
2024-05-09T02:00:42.534Z,9.20
2024-05-09T02:03:31.615Z,9.20
2024-05-09T02:06:19.529Z,9.20
2024-05-09T02:09:07.710Z,9.20
2024-05-09T02:11:55.698Z,9.10
2024-05-09T02:14:43.780Z,9.30
2024-05-09T02:17:34.294Z,9.40
2024-05-09T02:20:33.553Z,9.50
2024-05-09T02:23:27.128Z,9.30
2024-05-09T02:26:15.141Z,9.00
2024-05-09T02:29:05.860Z,9.00
2024-05-09T02:31:56.639Z,8.80
2024-05-09T02:34:49.180Z,9.00
2024-05-09T02:37:37.064Z,9.10
2024-05-09T02:40:33.299Z,9.00
2024-05-09T02:43:25.490Z,8.90
2024-05-09T02:46:15.679Z,8.80
2024-05-09T02:49:04.543Z,8.70
2024-05-09T02:52:02.071Z,8.60
2024-05-09T02:54:54.747Z,8.60
2024-05-09T02:57:42.728Z,8.60
2024-05-09T03:00:39.309Z,8.50
2024-05-09T03:03:29.733Z,8.50
2024-05-09T03:06:17.662Z,8.40
2024-05-09T03:09:07.751Z,8.50
2024-05-09T03:11:55.772Z,8.70
2024-05-09T03:14:43.896Z,8.80
2024-05-09T03:17:32.041Z,8.70
2024-05-09T03:20:30.332Z,8.80
2024-05-09T03:23:24.258Z,8.80
2024-05-09T03:26:21.993Z,8.80
2024-05-09T03:29:16.108Z,8.90
2024-05-09T03:32:04.098Z,8.70
2024-05-09T03:34:54.776Z,8.60
2024-05-09T03:37:42.632Z,8.80
2024-05-09T03:40:31.415Z,8.70
2024-05-09T03:43:22.936Z,8.70
2024-05-09T03:46:13.556Z,8.70
2024-05-09T03:49:02.167Z,8.70
2024-05-09T03:51:52.857Z,8.70
2024-05-09T03:54:49.103Z,8.90
2024-05-09T03:57:37.031Z,8.80
2024-05-09T04:00:35.397Z,8.70
2024-05-09T04:03:26.885Z,8.90
2024-05-09T04:06:26.963Z,8.80
2024-05-09T04:09:22.176Z,9.10
2024-05-09T04:12:10.142Z,9.10
2024-05-09T04:15:01.743Z,9.00
2024-05-09T04:17:52.555Z,8.90
2024-05-09T04:20:48.598Z,9.00
2024-05-09T04:23:37.010Z,9.40
2024-05-09T04:26:25.854Z,9.70
2024-05-09T04:29:17.317Z,10.10
2024-05-09T04:32:06.092Z,10.20
2024-05-09T04:34:53.956Z,10.60
2024-05-09T04:37:47.074Z,11.00
2024-05-09T04:40:37.302Z,11.50
2024-05-09T04:43:28.198Z,11.90
2024-05-09T04:46:18.704Z,12.00
2024-05-09T04:49:06.794Z,12.30
2024-05-09T04:51:57.006Z,12.70
2024-05-09T04:54:45.007Z,13.10
2024-05-09T04:57:35.394Z,13.60
2024-05-09T05:00:32.390Z,13.90
2024-05-09T05:03:24.835Z,13.80
2024-05-09T05:06:13.204Z,13.90
2024-05-09T05:09:03.621Z,14.10
2024-05-09T05:11:52.402Z,14.60
2024-05-09T05:14:40.761Z,14.20
2024-05-09T05:17:31.940Z,14.00
2024-05-09T05:20:27.792Z,13.90
2024-05-09T05:23:24.198Z,13.70
2024-05-09T05:26:12.402Z,14.10
2024-05-09T05:29:01.932Z,14.30
2024-05-09T05:31:54.301Z,14.70
2024-05-09T05:34:42.595Z,14.90
2024-05-09T05:37:33.390Z,15.50
2024-05-09T05:40:32.428Z,15.60
2024-05-09T05:43:24.636Z,15.90
2024-05-09T05:46:12.497Z,14.90
2024-05-09T05:49:09.371Z,14.40
2024-05-09T05:51:57.599Z,14.80
2024-05-09T05:54:48.602Z,13.60
2024-05-09T05:57:36.613Z,13.30
2024-05-09T06:00:38.154Z,14.30
2024-05-09T06:03:40.212Z,15.30
2024-05-09T06:06:30.699Z,14.70
2024-05-09T06:09:18.946Z,14.40
2024-05-09T06:12:10.263Z,15.20
2024-05-09T06:14:59.994Z,15.40
2024-05-09T06:17:55.801Z,14.70
2024-05-09T06:20:56.274Z,14.90
2024-05-09T06:23:48.537Z,15.10
2024-05-09T06:26:39.215Z,15.00
2024-05-09T06:29:54.526Z,14.70
2024-05-09T06:32:49.874Z,16.10
2024-05-09T06:38:49.478Z,15.10
2024-05-09T06:41:39.910Z,15.80
2024-05-09T06:44:31.756Z,16.60
2024-05-09T06:47:29.185Z,16.50
2024-05-09T06:50:28.721Z,16.60
2024-05-09T06:53:29.550Z,16.40
2024-05-09T06:56:22.674Z,16.80
2024-05-09T06:59:17.780Z,16.90
2024-05-09T07:02:11.681Z,17.80
2024-05-09T07:05:11.525Z,18.80
2024-05-09T07:08:04.321Z,19.00
2024-05-09T07:10:55.950Z,19.40
2024-05-09T07:13:44.488Z,19.40
2024-05-09T07:16:47.972Z,19.80
2024-05-09T07:19:51.598Z,19.20
2024-05-09T07:26:53.290Z,19.30
2024-05-09T07:30:31.079Z,19.80
2024-05-09T07:33:34.220Z,20.70
2024-05-09T07:36:38.893Z,21.10
2024-05-09T07:39:35.524Z,22.10
2024-05-09T07:42:49.409Z,21.90
2024-05-09T07:45:51.651Z,22.20
2024-05-09T07:53:32.600Z,21.90
2024-05-09T07:56:09.383Z,22.40
2024-05-09T07:59:07.103Z,23.70
2024-05-09T08:02:12.554Z,24.40
2024-05-09T08:05:09.555Z,23.30
2024-05-09T08:08:04.380Z,23.40
2024-05-09T08:11:07.625Z,23.20
2024-05-09T08:14:09.302Z,23.50
2024-05-09T08:17:08.071Z,24.70
2024-05-09T08:20:18.711Z,25.50
2024-05-09T08:23:15.681Z,25.70
2024-05-09T08:26:10.148Z,26.20
2024-05-09T08:29:09.270Z,26.50
2024-05-09T08:32:05.316Z,26.70
2024-05-09T08:35:09.895Z,24.90
2024-05-09T08:38:07.415Z,25.80
2024-05-09T08:41:08.419Z,24.30
2024-05-09T08:44:07.927Z,24.10
2024-05-09T08:47:08.760Z,26.20
2024-05-09T08:50:10.924Z,26.10
2024-05-09T08:53:34.236Z,26.00
2024-05-09T09:11:45.699Z,24.40
2024-05-09T09:15:16.942Z,25.60
2024-05-09T09:18:49.110Z,26.20
2024-05-09T09:21:48.439Z,26.10
2024-05-09T09:24:45.584Z,26.30
2024-05-09T09:27:53.951Z,26.40
2024-05-09T09:30:50.468Z,26.70
2024-05-09T09:33:50.480Z,27.30
2024-05-09T09:37:06.956Z,28.20
2024-05-09T09:40:13.281Z,27.90
2024-05-09T09:43:15.711Z,28.20
2024-05-09T09:46:18.446Z,29.10
2024-05-09T09:49:17.030Z,29.10
2024-05-09T09:52:11.912Z,29.60
2024-05-09T09:55:07.574Z,29.90
2024-05-09T09:58:01.099Z,27.70
2024-05-09T10:01:12.980Z,28.00
2024-05-09T10:04:15.460Z,28.80
2024-05-09T10:07:12.848Z,28.90
2024-05-09T10:10:16.240Z,29.40
2024-05-09T10:13:13.531Z,28.20
2024-05-09T10:16:12.466Z,26.20
2024-05-09T10:19:28.076Z,27.00
2024-05-09T10:22:34.483Z,26.80
2024-05-09T10:25:28.128Z,27.00
2024-05-09T10:28:19.357Z,27.80
2024-05-09T10:31:18.535Z,28.40
2024-05-09T10:34:33.075Z,27.80
2024-05-09T10:41:07.273Z,27.80
2024-05-09T10:44:04.056Z,26.30
2024-05-09T10:47:05.143Z,26.90
2024-05-09T10:50:07.980Z,29.10
2024-05-09T10:53:30.919Z,30.60
2024-05-09T10:56:34.558Z,28.60
2024-05-09T10:59:46.271Z,29.80
2024-05-09T11:08:03.545Z,30.10
2024-05-09T11:10:58.982Z,27.90
2024-05-09T11:14:04.139Z,27.90
2024-05-09T11:17:23.358Z,29.20
2024-05-09T11:20:44.539Z,29.50
2024-05-09T11:24:30.809Z,30.10
2024-05-09T11:27:36.279Z,30.30
2024-05-09T11:33:54.669Z,31.30
2024-05-09T11:44:48.497Z,29.30
2024-05-09T11:47:52.118Z,28.70
2024-05-09T11:53:33.574Z,31.10
2024-05-09T11:59:13.445Z,32.80
2024-05-09T12:06:25.319Z,30.80
2024-05-09T12:09:38.459Z,28.90
2024-05-09T12:13:32.804Z,28.30
2024-05-09T12:16:46.420Z,28.90
2024-05-09T12:25:46.080Z,29.40
2024-05-09T12:29:21.632Z,29.10
2024-05-09T12:37:42.652Z,27.70
2024-05-09T12:40:38.948Z,28.20
2024-05-09T12:43:36.105Z,31.00
2024-05-09T12:46:29.095Z,31.50
2024-05-09T12:49:25.863Z,32.20
2024-05-09T12:52:20.840Z,31.30
2024-05-09T12:55:17.846Z,32.50
2024-05-09T12:58:23.042Z,33.00
2024-05-09T13:01:17.123Z,33.60
2024-05-09T13:04:08.437Z,32.10
2024-05-09T13:06:59.747Z,30.90
2024-05-09T13:09:55.092Z,27.30
2024-05-09T13:12:46.829Z,27.60
2024-05-09T13:15:42.846Z,28.90
2024-05-09T13:18:38.034Z,30.70
2024-05-09T13:21:34.039Z,32.50
2024-05-09T13:24:31.333Z,33.10
2024-05-09T13:27:27.691Z,33.70
2024-05-09T13:30:29.503Z,32.00
2024-05-09T13:33:31.441Z,33.40
2024-05-09T13:36:25.844Z,28.20
2024-05-09T13:39:24.608Z,28.10
2024-05-09T13:42:18.448Z,27.80
2024-05-09T13:45:09.814Z,31.00
2024-05-09T13:48:04.554Z,31.10
2024-05-09T13:50:57.844Z,32.40
2024-05-09T13:53:53.075Z,33.30
2024-05-09T13:56:47.249Z,33.00
2024-05-09T13:59:43.991Z,32.50
2024-05-09T14:02:37.790Z,32.00
2024-05-09T14:05:33.410Z,33.80
2024-05-09T14:08:28.113Z,34.90
2024-05-09T14:11:22.261Z,32.70
2024-05-09T14:14:13.386Z,29.00
2024-05-09T14:17:08.097Z,28.20
2024-05-09T14:19:59.099Z,28.10
2024-05-09T14:22:55.346Z,29.50
2024-05-09T14:25:52.424Z,30.60
2024-05-09T14:28:48.951Z,29.80
2024-05-09T14:31:40.069Z,27.00
2024-05-09T14:34:34.442Z,29.40
2024-05-09T14:37:26.094Z,30.10
2024-05-09T14:43:13.616Z,30.80
2024-05-09T14:46:10.714Z,31.30
2024-05-09T14:49:04.002Z,32.00
2024-05-09T14:51:55.625Z,32.10
2024-05-09T14:54:59.821Z,33.30
2024-05-09T14:57:52.689Z,31.70
2024-05-09T15:00:51.348Z,31.80
2024-05-09T15:03:52.107Z,29.50
2024-05-09T15:06:49.110Z,30.70
2024-05-09T15:09:43.509Z,31.90
2024-05-09T15:12:37.789Z,34.60
2024-05-09T15:15:33.102Z,34.50
2024-05-09T15:18:24.039Z,31.70
2024-05-09T15:21:18.306Z,31.00
2024-05-09T15:24:09.467Z,30.90
2024-05-09T15:27:03.592Z,31.70
2024-05-09T15:30:03.272Z,33.40
2024-05-09T15:32:59.352Z,34.50
2024-05-09T15:35:57.101Z,35.00
2024-05-09T15:38:52.985Z,34.20
2024-05-09T15:41:48.954Z,33.40
2024-05-09T15:44:42.845Z,31.20
2024-05-09T15:47:38.242Z,31.50
2024-05-09T15:50:37.744Z,31.20
2024-05-09T15:53:34.153Z,33.00
2024-05-09T15:56:30.769Z,33.90
2024-05-09T15:59:23.453Z,33.40
2024-05-09T16:02:18.057Z,33.00
2024-05-09T16:05:10.378Z,31.20
2024-05-09T16:08:08.144Z,31.20
2024-05-09T16:11:04.739Z,30.60
2024-05-09T16:13:59.378Z,33.00
2024-05-09T16:16:59.404Z,33.10
2024-05-09T16:19:53.676Z,33.90
2024-05-09T16:22:46.275Z,34.10
2024-05-09T16:25:45.481Z,34.60
2024-05-09T16:28:45.939Z,35.20
2024-05-09T16:31:39.650Z,34.00
2024-05-09T16:34:35.928Z,33.30
2024-05-09T16:37:32.477Z,32.60
2024-05-09T16:40:38.081Z,32.60
2024-05-09T16:43:32.378Z,31.40
2024-05-09T16:46:23.929Z,28.20
2024-05-09T16:49:18.885Z,28.00
2024-05-09T16:52:15.679Z,28.40
2024-05-09T16:55:06.608Z,28.10
2024-05-09T16:57:59.576Z,26.30
2024-05-09T17:00:53.691Z,25.30
2024-05-09T17:03:46.099Z,24.70
2024-05-09T17:06:38.204Z,25.30
2024-05-09T17:09:34.559Z,28.00
2024-05-09T17:12:29.479Z,30.30
2024-05-09T17:15:24.501Z,31.40
2024-05-09T17:18:18.794Z,32.10
2024-05-09T17:21:10.121Z,32.40
2024-05-09T17:24:04.184Z,32.50
2024-05-09T17:26:57.088Z,33.00
2024-05-09T17:29:49.256Z,32.10
2024-05-09T17:32:43.770Z,31.90
2024-05-09T17:35:41.767Z,32.30
2024-05-09T17:38:34.978Z,31.60
2024-05-09T17:41:27.980Z,30.70
2024-05-09T17:44:20.047Z,29.90
2024-05-09T17:47:13.201Z,29.90
2024-05-09T17:50:15.019Z,30.00
2024-05-09T17:53:13.590Z,29.80
2024-05-09T17:56:09.029Z,29.50
2024-05-09T17:59:05.472Z,29.50
2024-05-09T18:02:02.374Z,28.80
2024-05-09T18:04:57.510Z,29.30
2024-05-09T18:07:50.074Z,29.40
2024-05-09T18:10:43.771Z,28.10
2024-05-09T18:13:33.074Z,26.90
2024-05-09T18:16:26.066Z,26.00
2024-05-09T18:19:14.622Z,24.90
2024-05-09T18:22:06.725Z,24.00
2024-05-09T18:24:59.727Z,23.40
2024-05-09T18:27:56.285Z,22.80
2024-05-09T18:30:49.975Z,22.20
2024-05-09T18:33:45.273Z,21.60
2024-05-09T18:36:38.565Z,21.30
2024-05-09T18:39:29.072Z,21.00
2024-05-09T18:42:22.785Z,20.70
2024-05-09T18:45:15.137Z,20.40
2024-05-09T18:48:06.703Z,19.90
2024-05-09T18:50:59.877Z,20.00
2024-05-09T18:53:47.955Z,19.90
2024-05-09T18:56:38.616Z,19.50
2024-05-09T18:59:32.126Z,19.10
2024-05-09T19:02:23.442Z,18.90
2024-05-09T19:05:11.741Z,18.70
2024-05-09T19:07:59.891Z,18.70
2024-05-09T19:10:48.317Z,18.30
2024-05-09T19:13:36.350Z,17.80
2024-05-09T19:16:24.571Z,17.40
2024-05-09T19:19:15.353Z,17.10
2024-05-09T19:22:07.898Z,16.90
2024-05-09T19:24:55.971Z,16.80
2024-05-09T19:27:43.962Z,16.60
2024-05-09T19:30:38.710Z,16.50
2024-05-09T19:33:29.434Z,16.20
2024-05-09T19:36:19.558Z,16.00
2024-05-09T19:39:07.373Z,15.90
2024-05-09T19:41:56.015Z,15.80
2024-05-09T19:44:44.030Z,15.70
2024-05-09T19:47:32.100Z,15.70
2024-05-09T19:50:26.988Z,15.60
2024-05-09T19:53:23.563Z,15.40
2024-05-09T19:56:11.561Z,15.30
2024-05-09T19:58:59.227Z,15.30
2024-05-09T20:01:48.619Z,15.30
2024-05-09T20:04:36.779Z,15.20
2024-05-09T20:07:24.843Z,15.30
2024-05-09T20:10:20.490Z,15.20
2024-05-09T20:13:11.954Z,15.20
2024-05-09T20:16:01.420Z,15.10
2024-05-09T20:18:49.566Z,15.10
2024-05-09T20:21:43.276Z,15.00
2024-05-09T20:24:31.188Z,14.90
2024-05-09T20:27:19.089Z,15.10
2024-05-09T20:30:11.963Z,15.20
2024-05-09T20:33:04.572Z,15.20
2024-05-09T20:35:55.546Z,15.10
2024-05-09T20:38:44.035Z,15.10
2024-05-09T20:41:33.646Z,15.00
2024-05-09T20:44:22.253Z,14.90
2024-05-09T20:47:12.162Z,14.90
2024-05-09T20:50:05.173Z,14.80
2024-05-09T20:52:55.161Z,14.60
2024-05-09T20:55:44.452Z,14.60
2024-05-09T20:58:33.073Z,14.50
2024-05-09T21:01:23.446Z,14.40
2024-05-09T21:04:11.620Z,14.30
2024-05-09T21:06:59.735Z,14.40
2024-05-09T21:09:50.695Z,14.30
2024-05-09T21:12:38.536Z,14.40
2024-05-09T21:15:26.407Z,14.60
2024-05-09T21:18:16.687Z,14.50
2024-05-09T21:21:04.668Z,14.40
2024-05-09T21:23:52.407Z,14.60
2024-05-09T21:26:40.381Z,14.40
2024-05-09T21:29:28.030Z,14.20
2024-05-09T21:32:15.824Z,14.10
2024-05-09T21:35:03.616Z,14.30
2024-05-09T21:37:51.758Z,14.60
2024-05-09T21:40:39.734Z,14.30
2024-05-09T21:43:28.784Z,13.90
2024-05-09T21:46:16.698Z,13.70
2024-05-09T21:49:04.485Z,13.50
2024-05-09T21:51:52.296Z,13.50
2024-05-09T21:54:40.054Z,13.50
2024-05-09T21:57:27.844Z,13.50
2024-05-09T22:00:28.173Z,13.40
2024-05-09T22:03:22.885Z,13.40
2024-05-09T22:06:13.718Z,13.40
2024-05-09T22:09:05.131Z,13.40
2024-05-09T22:11:54.447Z,13.60
2024-05-09T22:14:42.236Z,13.70
2024-05-09T22:17:30.061Z,13.90
2024-05-09T22:20:25.159Z,13.90
2024-05-09T22:23:17.085Z,13.80
2024-05-09T22:26:04.909Z,13.90
2024-05-09T22:28:52.686Z,14.10
2024-05-09T22:31:40.620Z,13.80
2024-05-09T22:34:28.509Z,13.60
2024-05-09T22:37:16.352Z,13.80
2024-05-09T22:40:06.775Z,13.70
2024-05-09T22:42:54.829Z,13.70
2024-05-09T22:45:42.571Z,13.80
2024-05-09T22:48:30.384Z,13.80
2024-05-09T22:51:18.174Z,13.70
2024-05-09T22:54:06.035Z,13.70
2024-05-09T22:56:53.668Z,13.80
2024-05-09T22:59:41.495Z,13.80
2024-05-09T23:02:29.283Z,13.70
2024-05-09T23:05:17.379Z,13.50
2024-05-09T23:08:05.574Z,13.20
2024-05-09T23:10:55.799Z,13.20
2024-05-09T23:13:43.743Z,13.00
2024-05-09T23:16:31.453Z,12.90
2024-05-09T23:19:19.204Z,12.70
2024-05-09T23:22:07.044Z,12.50
2024-05-09T23:24:54.811Z,12.40
2024-05-09T23:27:43.343Z,12.50
2024-05-09T23:30:37.568Z,12.50
2024-05-09T23:33:27.912Z,12.40
2024-05-09T23:36:15.703Z,12.40
2024-05-09T23:39:03.395Z,12.30
2024-05-09T23:41:54.151Z,12.00
2024-05-09T23:44:42.267Z,11.80
2024-05-09T23:47:30.530Z,11.60
2024-05-09T23:50:26.305Z,11.60
2024-05-09T23:53:19.016Z,11.60
2024-05-09T23:56:07.344Z,11.70
2024-05-09T23:58:55.250Z,11.90
